Time;durP1;ratioP1;P1;durP2;ratioP2;P2;SDS_P1;SDS_P2;PMS_P1;PMS_P2;Temp;Humidity;BMP_temperature;BMP_pressure;BME280_temperature;BME280_humidity;BME280_pressure;Samples;Min_cycle;Max_cycle;Signal;HPM_P1;HPM_P2
2022/03/04 00:01:21;;;;;;;39.50;15.73;;;;;;;38.52;45.99;100915.84;4992358;28;20853;-70
2022/03/04 00:03:47;;;;;;;33.50;16.87;;;;;;;38.48;46.29;100905.94;4992229;28;20414;-71
2022/03/04 00:06:14;;;;;;;26.70;15.43;;;;;;;38.28;46.82;100907.25;4992003;28;20560;-68
2022/03/04 00:08:40;;;;;;;36.87;19.53;;;;;;;38.28;46.85;100904.53;4992201;28;20853;-69
2022/03/04 00:11:07;;;;;;;36.33;18.27;;;;;;;38.20;46.54;100897.91;4991547;28;20513;-68
2022/03/04 00:13:33;;;;;;;39.43;17.27;;;;;;;37.97;47.33;100897.09;4993490;28;20534;-68
2022/03/04 00:15:59;;;;;;;43.03;15.77;;;;;;;38.16;46.82;100888.78;4991891;28;20973;-68
2022/03/04 00:18:26;;;;;;;39.63;17.03;;;;;;;37.94;47.16;100888.75;4992121;28;20425;-68
2022/03/04 00:20:52;;;;;;;31.83;15.00;;;;;;;37.98;46.88;100887.03;4992001;28;20512;-68
2022/03/04 00:23:19;;;;;;;54.03;22.03;;;;;;;37.90;47.54;100892.09;4975611;28;20906;-68
2022/03/04 00:25:46;;;;;;;36.93;15.93;;;;;;;37.80;47.17;100891.47;4993166;28;20881;-70
2022/03/04 00:28:12;;;;;;;39.10;18.70;;;;;;;38.07;46.35;100901.47;4993200;28;20428;-70
2022/03/04 00:30:38;;;;;;;42.33;20.37;;;;;;;37.86;46.92;100898.41;4991601;28;20425;-70
2022/03/04 00:33:04;;;;;;;51.90;18.40;;;;;;;37.85;47.40;100894.09;4991767;28;20478;-68
2022/03/04 00:35:30;;;;;;;39.90;18.33;;;;;;;38.00;47.44;100888.34;4993015;28;20390;-68
2022/03/04 00:37:56;;;;;;;46.47;19.73;;;;;;;38.18;46.28;100870.31;4993067;28;20468;-70
2022/03/04 00:40:23;;;;;;;37.83;15.77;;;;;;;37.95;46.88;100874.13;4991448;28;20496;-70
2022/03/04 00:42:49;;;;;;;53.73;18.73;;;;;;;38.02;47.33;100878.00;4991557;28;20452;-68
2022/03/04 00:45:15;;;;;;;46.20;17.07;;;;;;;38.09;47.03;100881.09;4991549;28;20512;-70
2022/03/04 00:47:41;;;;;;;33.07;18.37;;;;;;;38.16;47.06;100876.03;4991491;28;20424;-70
2022/03/04 00:50:08;;;;;;;32.00;16.20;;;;;;;38.24;46.46;100871.78;4991362;28;21008;-70
2022/03/04 00:52:35;;;;;;;36.80;19.50;;;;;;;38.15;46.54;100863.63;4991600;28;20420;-69
2022/03/04 00:55:03;;;;;;;36.37;16.40;;;;;;;38.24;46.40;100860.16;4991444;28;20410;-69
2022/03/04 00:57:29;;;;;;;34.13;18.50;;;;;;;38.26;46.18;100847.13;4991494;28;20921;-69
2022/03/04 00:59:55;;;;;;;39.23;16.80;;;;;;;38.12;46.27;100841.75;4991356;28;20930;-69
2022/03/04 01:02:22;;;;;;;45.90;18.33;;;;;;;38.07;46.65;100848.09;4991279;28;20452;-68
2022/03/04 01:04:48;;;;;;;32.50;17.33;;;;;;;38.33;45.96;100836.66;4991292;28;20541;-71
2022/03/04 01:07:14;;;;;;;31.33;17.07;;;;;;;38.28;46.47;100834.09;4991259;28;20453;-69
2022/03/04 01:09:40;;;;;;;44.67;18.10;;;;;;;38.29;46.43;100817.50;4991294;28;20428;-69
2022/03/04 01:12:07;;;;;;;31.60;17.53;;;;;;;38.20;46.50;100818.56;4991200;28;20929;-68
2022/03/04 01:14:33;;;;;;;44.83;21.20;;;;;;;38.09;46.85;100823.41;4975216;28;20421;-70
2022/03/04 01:16:59;;;;;;;37.70;17.30;;;;;;;38.16;45.77;100827.28;4992568;28;20402;-69
2022/03/04 01:19:25;;;;;;;37.33;19.97;;;;;;;38.12;46.19;100826.31;4991189;28;20425;-69
2022/03/04 01:21:51;;;;;;;34.57;18.53;;;;;;;37.92;46.55;100832.19;4991601;28;20435;-68
2022/03/04 01:24:18;;;;;;;34.73;15.83;;;;;;;37.93;46.93;100822.97;4996383;28;20418;-68
2022/03/04 01:26:44;;;;;;;37.07;17.30;;;;;;;37.99;47.21;100818.22;4996956;28;20449;-68
2022/03/04 01:29:10;;;;;;;45.80;17.63;;;;;;;37.74;46.94;100808.78;4995129;28;20855;-70
2022/03/04 01:31:36;;;;;;;40.67;20.07;;;;;;;37.79;47.36;100805.94;4994967;28;20418;-71
2022/03/04 01:34:02;;;;;;;43.83;19.90;;;;;;;37.69;47.27;100792.63;4978863;28;20449;-68
2022/03/04 01:36:32;;;;;;;45.40;18.70;;;;;;;37.76;47.25;100774.09;4995228;28;20428;-68
2022/03/04 01:39:00;;;;;;;41.10;18.73;;;;;;;37.76;47.02;100761.34;4995077;28;20480;-68
2022/03/04 01:41:26;;;;;;;47.80;17.67;;;;;;;37.79;47.37;100763.44;4994448;28;20988;-71
2022/03/04 01:43:52;;;;;;;45.07;17.97;;;;;;;37.45;48.52;100768.59;4996159;28;20401;-69
2022/03/04 01:46:21;;;;;;;46.37;18.70;;;;;;;37.43;48.64;100770.78;4994665;28;20468;-69
2022/03/04 01:48:47;;;;;;;43.67;17.30;;;;;;;37.72;47.76;100773.09;4994857;28;20817;-68
2022/03/04 01:51:14;;;;;;;30.90;17.53;;;;;;;37.80;47.36;100764.22;5014409;28;20409;-70
2022/03/04 01:53:40;;;;;;;27.63;16.00;;;;;;;37.83;47.05;100755.53;5005882;28;20528;-69
2022/03/04 01:56:06;;;;;;;33.50;16.07;;;;;;;37.99;46.37;100762.16;4994582;28;20854;-70
2022/03/04 01:58:33;;;;;;;34.63;18.00;;;;;;;37.90;46.90;100755.91;4994642;28;20406;-70
2022/03/04 02:00:59;;;;;;;42.97;16.97;;;;;;;38.16;46.68;100748.72;4994391;28;20433;-69
2022/03/04 02:03:25;;;;;;;26.20;16.30;;;;;;;38.15;46.58;100743.63;4994552;28;20420;-68
2022/03/04 02:05:51;;;;;;;35.80;18.07;;;;;;;38.05;46.46;100733.84;4994408;28;20996;-68
2022/03/04 02:08:17;;;;;;;31.33;17.57;;;;;;;38.05;46.78;100731.13;4993823;28;20449;-68
2022/03/04 02:10:43;;;;;;;88.87;17.90;;;;;;;37.98;46.90;100735.41;4993388;28;20417;-69
2022/03/04 02:13:10;;;;;;;36.00;17.30;;;;;;;38.21;46.24;100736.16;4994068;28;20437;-70
2022/03/04 02:15:36;;;;;;;34.40;17.57;;;;;;;38.17;46.11;100735.97;4991946;28;20422;-68
2022/03/04 02:18:10;;;;;;;47.03;20.07;;;;;;;37.81;47.02;100722.53;4958898;28;20509;-68
2022/03/04 02:20:41;;;;;;;29.37;16.93;;;;;;;37.80;47.29;100716.31;4958891;28;20452;-71
2022/03/04 02:23:08;;;;;;;38.77;18.50;;;;;;;37.91;46.92;100714.19;4974730;28;20426;-70
2022/03/04 02:25:34;;;;;;;45.80;19.60;;;;;;;38.05;46.83;100717.59;4958556;28;20490;-69
2022/03/04 02:28:00;;;;;;;41.03;19.40;;;;;;;37.88;46.95;100731.06;4990888;28;20414;-68
2022/03/04 02:30:26;;;;;;;30.90;14.20;;;;;;;38.11;45.97;100729.91;4974432;28;20418;-71
2022/03/04 02:32:52;;;;;;;39.97;18.33;;;;;;;37.93;46.77;100728.19;4974257;28;20430;-69
2022/03/04 02:35:18;;;;;;;33.23;18.13;;;;;;;38.04;46.62;100712.50;4974458;28;20450;-68
2022/03/04 02:37:44;;;;;;;35.37;20.83;;;;;;;37.91;46.31;100706.84;4975734;28;20403;-68
2022/03/04 02:40:11;;;;;;;40.33;18.93;;;;;;;37.78;47.06;100701.47;4990604;28;20430;-70
2022/03/04 02:42:37;;;;;;;43.27;19.97;;;;;;;37.81;46.58;100696.28;4990461;28;20426;-71
2022/03/04 02:45:04;;;;;;;41.90;17.33;;;;;;;37.81;46.55;100701.72;4975668;28;20450;-70
2022/03/04 02:47:30;;;;;;;37.10;16.50;;;;;;;37.98;46.49;100695.56;4975573;28;20474;-69
2022/03/04 02:49:56;;;;;;;42.43;17.13;;;;;;;37.84;46.56;100687.53;4958019;28;20472;-68
2022/03/04 02:52:22;;;;;;;33.40;15.90;;;;;;;37.81;46.30;100682.75;4990435;28;20501;-68
2022/03/04 02:54:48;;;;;;;39.37;17.20;;;;;;;37.89;46.36;100684.69;4974218;28;20430;-70
2022/03/04 02:57:14;;;;;;;32.20;17.00;;;;;;;38.01;46.34;100678.72;4990403;28;20414;-70
2022/03/04 02:59:40;;;;;;;35.43;19.30;;;;;;;37.96;46.26;100681.56;4990269;28;20407;-68
2022/03/04 03:02:06;;;;;;;27.60;17.27;;;;;;;38.11;46.08;100677.63;4973970;28;20794;-70
2022/03/04 03:04:32;;;;;;;27.10;15.10;;;;;;;38.02;45.96;100680.31;4990155;28;20445;-70
2022/03/04 03:06:59;;;;;;;32.00;19.00;;;;;;;38.04;46.26;100691.63;4973816;28;20473;-68
2022/03/04 03:09:25;;;;;;;34.67;18.17;;;;;;;38.24;46.03;100690.28;4974008;28;20394;-71
2022/03/04 03:11:51;;;;;;;29.03;16.70;;;;;;;38.06;46.51;100691.31;4974073;28;20806;-68
2022/03/04 03:14:17;;;;;;;35.43;16.13;;;;;;;37.86;46.46;100681.81;4989754;28;20528;-68
2022/03/04 03:16:43;;;;;;;45.03;19.63;;;;;;;37.58;47.37;100681.13;4975112;28;21032;-68
2022/03/04 03:19:09;;;;;;;34.70;17.67;;;;;;;37.64;47.22;100686.13;4973662;28;20875;-68
2022/03/04 03:21:35;;;;;;;36.43;18.53;;;;;;;37.55;47.00;100687.94;4973965;28;20481;-70
2022/03/04 03:24:01;;;;;;;36.93;17.40;;;;;;;37.99;46.56;100682.81;4989706;28;21045;-70
2022/03/04 03:26:27;;;;;;;45.47;14.73;;;;;;;38.11;45.69;100683.06;4974738;28;20524;-70
2022/03/04 03:28:53;;;;;;;44.00;18.47;;;;;;;37.92;46.50;100683.28;4989676;28;20426;-71
2022/03/04 03:31:19;;;;;;;50.83;17.73;;;;;;;37.97;46.27;100688.56;4989740;28;20418;-69
2022/03/04 03:33:45;;;;;;;42.17;18.60;;;;;;;37.77;46.45;100680.94;4974558;28;20626;-71
2022/03/04 03:36:12;;;;;;;36.77;16.77;;;;;;;37.86;46.67;100684.50;4973417;28;20830;-69
2022/03/04 03:38:38;;;;;;;39.30;19.13;;;;;;;37.99;46.35;100680.91;4989385;28;20457;-69
2022/03/04 03:41:04;;;;;;;37.30;19.80;;;;;;;37.87;46.35;100696.94;4974638;28;20407;-68
2022/03/04 03:43:30;;;;;;;29.60;17.40;;;;;;;37.95;46.17;100695.41;4976188;28;20460;-68
2022/03/04 03:45:56;;;;;;;44.57;19.67;;;;;;;37.95;46.16;100700.81;4992807;28;20863;-71
2022/03/04 03:48:22;;;;;;;43.87;17.83;;;;;;;37.86;45.94;100698.06;4992560;28;20454;-71
2022/03/04 03:50:48;;;;;;;34.43;15.77;;;;;;;38.11;45.91;100710.13;4995820;28;20480;-69
2022/03/04 03:53:14;;;;;;;35.93;15.13;;;;;;;38.15;46.01;100700.28;4961669;28;20445;-69
2022/03/04 03:55:40;;;;;;;31.63;16.67;;;;;;;38.13;45.92;100700.59;4994405;28;20485;-69
2022/03/04 03:58:06;;;;;;;28.33;16.13;;;;;;;37.96;46.46;100703.22;4976097;28;20445;-68
2022/03/04 04:00:33;;;;;;;37.00;16.20;;;;;;;38.04;46.42;100694.34;4976198;28;20451;-68
2022/03/04 04:02:59;;;;;;;37.43;20.27;;;;;;;38.08;46.44;100702.66;4993242;28;20425;-70
2022/03/04 04:05:25;;;;;;;39.73;18.77;;;;;;;38.10;45.94;100695.00;5013141;28;20462;-68
2022/03/04 04:07:51;;;;;;;44.70;16.70;;;;;;;38.11;46.05;100693.88;4994952;28;20479;-70
2022/03/04 04:10:17;;;;;;;35.77;18.10;;;;;;;38.04;46.15;100701.66;4994050;28;20432;-70
2022/03/04 04:12:43;;;;;;;36.23;17.77;;;;;;;38.08;45.63;100700.72;4995398;28;20424;-70
2022/03/04 04:15:09;;;;;;;43.20;18.03;;;;;;;38.27;45.72;100699.75;4995176;28;20535;-68
2022/03/04 04:17:35;;;;;;;33.13;17.73;;;;;;;38.23;45.67;100701.44;4994598;28;20432;-68
2022/03/04 04:20:02;;;;;;;32.23;16.70;;;;;;;37.92;45.84;100702.22;4995375;28;20412;-68
2022/03/04 04:22:28;;;;;;;38.57;20.87;;;;;;;37.87;46.13;100705.06;4995155;28;20423;-68
2022/03/04 04:24:54;;;;;;;46.30;20.80;;;;;;;37.86;46.40;100711.59;4995058;28;20519;-68
2022/03/04 04:27:20;;;;;;;29.57;17.33;;;;;;;37.89;46.17;100706.38;4995199;28;20425;-70
2022/03/04 04:29:46;;;;;;;35.17;18.83;;;;;;;37.79;46.29;100703.88;4995002;28;20420;-68
2022/03/04 04:32:12;;;;;;;29.53;15.53;;;;;;;37.77;46.55;100713.44;5012735;28;20504;-68
2022/03/04 04:34:38;;;;;;;50.67;22.70;;;;;;;37.70;46.82;100716.56;4994903;28;20500;-68
2022/03/04 04:37:05;;;;;;;25.03;15.50;;;;;;;37.78;46.61;100731.25;4994958;28;20515;-69
2022/03/04 04:39:31;;;;;;;35.53;16.00;;;;;;;37.78;46.44;100732.06;4994977;28;20416;-68
2022/03/04 04:41:57;;;;;;;41.23;15.93;;;;;;;37.79;46.53;100727.44;4994788;28;20435;-68
2022/03/04 04:44:23;;;;;;;41.87;17.40;;;;;;;37.78;46.36;100720.44;4994784;28;20854;-68
2022/03/04 04:46:49;;;;;;;33.73;18.33;;;;;;;37.92;46.64;100721.97;4994805;28;20924;-68
2022/03/04 04:49:15;;;;;;;45.63;19.13;;;;;;;37.90;46.47;100716.09;4994582;28;20483;-70
2022/03/04 04:51:41;;;;;;;40.13;19.37;;;;;;;38.00;46.38;100723.16;4994765;28;20478;-70
2022/03/04 04:54:07;;;;;;;50.40;21.30;;;;;;;38.01;46.77;100722.03;4994674;28;20482;-68
2022/03/04 04:56:33;;;;;;;28.93;15.97;;;;;;;37.91;46.25;100722.28;4994498;28;20434;-71
2022/03/04 04:59:00;;;;;;;39.47;17.90;;;;;;;37.95;46.05;100725.19;4994614;28;20416;-70
2022/03/04 05:01:26;;;;;;;29.80;14.37;;;;;;;37.96;45.94;100726.78;4994646;28;20512;-70
2022/03/04 05:03:52;;;;;;;34.50;19.00;;;;;;;37.98;46.59;100728.06;4994570;28;20507;-70
2022/03/04 05:06:18;;;;;;;34.93;17.67;;;;;;;38.03;46.48;100729.84;4994304;28;20980;-68
2022/03/04 05:08:44;;;;;;;41.00;19.90;;;;;;;37.78;46.22;100739.38;4994474;28;20460;-71
2022/03/04 05:11:10;;;;;;;36.70;18.00;;;;;;;37.64;46.42;100717.78;5012217;28;20435;-68
2022/03/04 05:13:36;;;;;;;42.33;18.30;;;;;;;37.96;45.88;100724.88;4994348;28;20452;-69
2022/03/04 05:16:02;;;;;;;41.70;16.50;;;;;;;37.87;45.91;100738.34;5012247;28;20396;-70
2022/03/04 05:18:28;;;;;;;35.03;17.33;;;;;;;37.87;45.93;100738.34;4978279;28;20420;-70
2022/03/04 05:20:54;;;;;;;29.87;16.43;;;;;;;37.87;46.14;100743.75;4994297;28;20452;-71
2022/03/04 05:26:05;;;;;;;30.67;17.37;;;;;;;37.70;46.58;100737.44;5012026;28;20486;-70
2022/03/04 05:28:31;;;;;;;46.77;16.10;;;;;;;37.75;46.73;100734.56;4994370;28;20516;-68
2022/03/04 05:30:57;;;;;;;36.90;22.47;;;;;;;37.82;46.19;100740.41;4994282;28;20445;-69
2022/03/04 05:33:23;;;;;;;51.33;18.17;;;;;;;37.69;46.46;100755.56;5012053;28;20485;-69
2022/03/04 05:35:49;;;;;;;33.97;16.93;;;;;;;37.85;45.45;100753.31;4993908;28;20439;-70
2022/03/04 05:38:15;;;;;;;43.23;17.83;;;;;;;37.64;45.67;100753.78;4994212;28;20460;-68
2022/03/04 05:40:41;;;;;;;26.40;15.73;;;;;;;37.75;46.85;100756.22;5011957;28;20442;-68
2022/03/04 05:43:08;;;;;;;46.37;19.30;;;;;;;37.67;46.37;100756.97;5012064;28;20409;-68
2022/03/04 05:45:34;;;;;;;35.73;20.47;;;;;;;37.61;46.99;100750.88;5010454;28;20507;-70
2022/03/04 05:48:00;;;;;;;28.10;16.23;;;;;;;37.83;46.78;100755.53;4994204;28;20983;-69
2022/03/04 05:50:26;;;;;;;45.10;16.83;;;;;;;38.01;45.93;100757.25;5010433;28;20506;-68
2022/03/04 05:52:52;;;;;;;32.43;16.37;;;;;;;37.99;46.31;100758.66;5010357;28;20433;-68
2022/03/04 05:55:18;;;;;;;44.43;19.13;;;;;;;38.01;46.20;100762.66;5012113;28;20455;-68
2022/03/04 05:57:44;;;;;;;29.93;17.80;;;;;;;38.07;45.93;100768.75;5010389;28;20421;-70
2022/03/04 06:00:11;;;;;;;39.47;15.70;;;;;;;38.22;45.71;100764.84;5010619;28;20401;-70
2022/03/04 06:02:37;;;;;;;34.03;14.50;;;;;;;38.09;45.93;100764.63;5011762;28;20393;-70
2022/03/04 06:05:03;;;;;;;43.03;17.47;;;;;;;37.95;45.98;100766.63;4975787;28;20460;-69
2022/03/04 06:07:33;;;;;;;27.57;16.30;;;;;;;37.96;45.88;100773.63;4992312;28;20848;-69
2022/03/04 06:10:00;;;;;;;46.97;18.70;;;;;;;37.98;46.28;100776.00;4994346;28;20443;-68
2022/03/04 06:12:26;;;;;;;43.27;18.60;;;;;;;38.08;45.59;100773.88;4999586;28;20420;-67
2022/03/04 06:14:52;;;;;;;43.40;19.60;;;;;;;37.98;46.09;100776.00;5034415;28;20419;-67
2022/03/04 06:17:18;;;;;;;37.47;16.63;;;;;;;38.14;45.50;100780.75;5008596;28;20400;-67
2022/03/04 06:19:44;;;;;;;36.47;17.47;;;;;;;38.10;45.52;100779.75;5034884;28;20773;-66
2022/03/04 06:22:11;;;;;;;68.73;23.13;;;;;;;38.08;45.81;100790.13;5017026;28;20415;-66
2022/03/04 06:24:37;;;;;;;39.73;20.10;;;;;;;38.16;45.96;100792.06;5033970;28;20407;-67
2022/03/04 06:27:03;;;;;;;52.23;19.17;;;;;;;38.03;45.84;100787.53;4985598;28;20437;-67
2022/03/04 06:29:29;;;;;;;38.97;19.60;;;;;;;37.94;46.24;100800.22;4977936;28;20487;-69
2022/03/04 06:31:55;;;;;;;39.50;16.93;;;;;;;37.91;46.02;100792.69;5009609;28;20432;-65
2022/03/04 06:34:21;;;;;;;30.10;15.87;;;;;;;37.95;46.16;100801.81;5014249;28;20408;-65
2022/03/04 06:36:47;;;;;;;33.83;18.40;;;;;;;37.91;46.33;100803.53;5004477;28;20420;-65
2022/03/04 06:39:14;;;;;;;31.03;16.80;;;;;;;38.18;45.74;100808.84;5014310;28;20427;-67
2022/03/04 06:41:40;;;;;;;51.13;19.30;;;;;;;38.15;46.11;100805.94;4999259;28;20504;-65
2022/03/04 06:44:06;;;;;;;40.50;22.00;;;;;;;38.15;46.42;100801.31;5004611;28;20427;-65
2022/03/04 06:46:32;;;;;;;35.73;16.20;;;;;;;38.18;45.86;100797.16;5004546;28;20523;-65
2022/03/04 06:48:58;;;;;;;36.37;19.80;;;;;;;37.87;46.29;100807.94;5001313;28;20468;-65
2022/03/04 06:51:24;;;;;;;40.00;16.53;;;;;;;38.05;46.34;100801.56;4996317;28;20416;-64
2022/03/04 06:53:50;;;;;;;42.47;17.33;;;;;;;38.09;45.85;100794.41;4976006;28;20436;-65
2022/03/04 06:56:17;;;;;;;33.33;15.93;;;;;;;38.09;46.24;100788.19;4994326;28;20441;-65
2022/03/04 06:58:44;;;;;;;40.43;20.07;;;;;;;38.10;46.17;100804.13;4992357;28;20467;-66
2022/03/04 07:01:10;;;;;;;36.20;15.87;;;;;;;38.08;46.34;100800.94;4978149;28;20418;-65
2022/03/04 07:03:36;;;;;;;37.67;17.20;;;;;;;38.20;46.06;100810.44;4996258;28;20416;-65
2022/03/04 07:06:03;;;;;;;44.07;18.10;;;;;;;38.09;45.77;100821.50;4980088;28;20490;-66
2022/03/04 07:08:31;;;;;;;35.10;17.30;;;;;;;38.18;45.96;100813.41;5014012;28;20428;-65
2022/03/04 07:10:57;;;;;;;42.60;19.80;;;;;;;38.11;46.03;100819.28;5012555;28;20428;-66
2022/03/04 07:13:25;;;;;;;35.23;21.40;;;;;;;38.12;46.05;100826.31;4994893;28;20519;-65
2022/03/04 07:15:52;;;;;;;35.03;19.50;;;;;;;38.21;45.87;100822.84;4974193;28;20472;-64
2022/03/04 07:18:18;;;;;;;38.60;17.03;;;;;;;38.19;45.95;100828.59;4995795;28;20432;-65
2022/03/04 07:20:44;;;;;;;46.27;18.50;;;;;;;37.91;46.40;100847.66;4978873;28;20452;-65
2022/03/04 07:23:10;;;;;;;32.30;19.60;;;;;;;37.89;45.90;100843.66;4995971;28;20498;-67
2022/03/04 07:25:36;;;;;;;34.60;16.30;;;;;;;37.90;46.02;100839.84;5012787;28;20494;-65
2022/03/04 07:28:03;;;;;;;45.43;17.23;;;;;;;38.18;45.75;100852.19;4995800;28;20586;-65
2022/03/04 07:30:29;;;;;;;53.20;19.20;;;;;;;38.09;46.22;100855.91;4979649;28;20494;-65
2022/03/04 07:32:55;;;;;;;34.20;17.90;;;;;;;38.05;46.26;100863.03;5012883;28;20427;-65
2022/03/04 07:35:22;;;;;;;27.43;15.57;;;;;;;38.07;45.83;100866.28;4996047;28;20431;-65
2022/03/04 07:37:48;;;;;;;43.27;16.87;;;;;;;38.04;45.79;100873.09;4994601;28;20876;-65
2022/03/04 07:40:15;;;;;;;31.77;16.97;;;;;;;38.13;45.97;100882.09;4996534;28;20467;-65
2022/03/04 07:42:42;;;;;;;38.63;16.53;;;;;;;38.05;45.53;100873.88;4979084;28;20417;-65
2022/03/04 07:45:10;;;;;;;36.03;16.27;;;;;;;38.07;45.56;100886.03;4994966;28;20488;-67
2022/03/04 07:47:37;;;;;;;23.73;15.57;;;;;;;38.18;45.27;100898.22;4993206;28;20482;-65
2022/03/04 07:50:05;;;;;;;39.30;18.30;;;;;;;38.38;44.91;100899.66;4963227;28;20478;-65
2022/03/04 07:52:31;;;;;;;33.63;16.87;;;;;;;38.52;44.94;100910.44;4995735;28;20417;-66
2022/03/04 07:55:00;;;;;;;34.77;19.23;;;;;;;38.43;45.22;100910.41;4995638;28;20511;-65
2022/03/04 07:57:26;;;;;;;32.83;18.30;;;;;;;38.25;45.07;100915.97;4977145;28;20605;-65
2022/03/04 07:59:52;;;;;;;41.00;16.60;;;;;;;38.43;44.87;100913.09;4993484;28;20456;-67
2022/03/04 08:02:19;;;;;;;37.47;15.27;;;;;;;38.57;44.93;100915.75;4993483;28;20956;-66
2022/03/04 08:04:46;;;;;;;43.83;18.90;;;;;;;38.59;44.70;100913.50;4977322;28;20425;-66
2022/03/04 08:07:13;;;;;;;34.53;15.80;;;;;;;38.66;44.56;100913.88;4994721;28;20444;-66
2022/03/04 08:09:41;;;;;;;38.13;17.63;;;;;;;38.57;44.53;100912.22;4979039;28;20456;-67
2022/03/04 08:12:08;;;;;;;42.80;18.33;;;;;;;38.64;44.40;100915.31;4994268;28;20432;-65
2022/03/04 08:14:34;;;;;;;28.20;17.13;;;;;;;38.53;44.37;100920.16;4993576;28;20425;-65
2022/03/04 08:17:00;;;;;;;38.07;16.93;;;;;;;38.64;43.85;100915.31;4994065;28;20898;-66
2022/03/04 08:19:26;;;;;;;29.80;16.83;;;;;;;38.60;43.86;100922.44;4994865;28;20487;-65
2022/03/04 08:21:52;;;;;;;41.23;15.10;;;;;;;38.43;44.67;100920.44;5012435;28;20509;-66
2022/03/04 08:24:18;;;;;;;33.00;17.17;;;;;;;38.10;45.05;100928.75;4978622;28;20412;-65
2022/03/04 08:26:44;;;;;;;46.60;19.33;;;;;;;38.18;44.89;100935.31;5012037;28;20476;-66
2022/03/04 08:29:12;;;;;;;37.87;17.67;;;;;;;38.54;44.48;100939.94;4994787;28;20474;-66
2022/03/04 08:31:38;;;;;;;41.47;19.50;;;;;;;38.66;44.30;100942.88;4993918;28;20508;-66
2022/03/04 08:34:05;;;;;;;42.90;19.80;;;;;;;38.47;44.34;100945.00;4994458;28;20964;-66
2022/03/04 08:36:32;;;;;;;28.30;17.10;;;;;;;38.54;44.13;100945.34;5011954;28;20417;-68
2022/03/04 08:39:03;;;;;;;41.80;18.60;;;;;;;38.30;44.77;100940.22;5012015;28;20452;-67
2022/03/04 08:41:33;;;;;;;28.30;15.30;;;;;;;38.42;44.65;100956.75;5012084;28;20404;-68
2022/03/04 08:43:59;;;;;;;50.30;20.63;;;;;;;38.60;44.47;100947.63;4994282;28;20491;-66
2022/03/04 08:46:26;;;;;;;30.83;14.40;;;;;;;38.64;43.54;100951.34;4994055;28;20471;-66
2022/03/04 08:48:52;;;;;;;29.70;15.07;;;;;;;38.69;43.61;100945.78;4994159;28;20424;-66
2022/03/04 08:51:24;;;;;;;42.83;21.10;;;;;;;38.70;43.81;100960.16;4994180;28;20816;-66
2022/03/04 08:53:54;;;;;;;34.00;16.07;;;;;;;38.66;43.74;100953.72;4994230;28;20452;-66
2022/03/04 08:56:20;;;;;;;41.90;17.00;;;;;;;38.72;44.46;100957.94;4993790;28;20417;-69
2022/03/04 08:58:46;;;;;;;46.47;16.47;;;;;;;38.45;44.60;100956.16;4994267;28;20420;-65
2022/03/04 09:01:14;;;;;;;29.57;15.87;;;;;;;38.67;44.18;100947.19;4977582;28;20451;-66
2022/03/04 09:03:40;;;;;;;31.23;17.87;;;;;;;38.84;43.91;100952.75;4994242;28;20932;-65
2022/03/04 09:06:25;;;;;;;27.67;16.43;;;;;;;38.81;43.78;100958.03;4994085;28;20453;-70
2022/03/04 09:08:51;;;;;;;42.10;18.60;;;;;;;38.79;43.88;100950.19;4993980;28;20538;-65
2022/03/04 09:11:17;;;;;;;52.50;19.30;;;;;;;38.99;43.48;100957.00;4994037;28;20423;-66
2022/03/04 09:13:43;;;;;;;57.47;17.00;;;;;;;38.99;43.30;100959.72;4992429;28;20432;-66
2022/03/04 09:16:09;;;;;;;36.80;16.23;;;;;;;39.25;42.70;100959.88;4984136;28;20451;-66
2022/03/04 09:18:35;;;;;;;41.80;15.73;;;;;;;39.21;43.14;100956.97;5010939;28;20412;-66
2022/03/04 09:21:02;;;;;;;48.10;18.47;;;;;;;39.19;42.81;100956.50;4993993;28;20404;-68
2022/03/04 09:23:28;;;;;;;38.67;15.77;;;;;;;39.45;42.15;100963.94;4994039;28;20424;-66
2022/03/04 09:25:54;;;;;;;30.10;16.40;;;;;;;39.46;42.06;100962.81;4993690;28;20899;-66
2022/03/04 09:28:20;;;;;;;31.80;14.10;;;;;;;39.41;42.42;100966.47;5011262;28;20774;-66
2022/03/04 09:30:46;;;;;;;37.93;15.57;;;;;;;39.28;42.94;100966.56;4990032;28;20463;-73
2022/03/04 09:33:12;;;;;;;45.67;18.53;;;;;;;39.41;42.08;100965.66;4988929;28;20428;-68
2022/03/04 09:35:38;;;;;;;27.27;14.90;;;;;;;39.44;42.69;100975.91;4993904;28;20463;-69
2022/03/04 09:38:05;;;;;;;26.67;16.27;;;;;;;39.45;42.06;100974.78;4993304;28;20892;-70
2022/03/04 09:40:32;;;;;;;32.03;16.47;;;;;;;39.50;41.96;100985.50;4992437;28;20428;-69
2022/03/04 09:42:58;;;;;;;38.10;18.80;;;;;;;39.48;42.30;100987.75;5012309;28;20416;-69
2022/03/04 09:45:25;;;;;;;38.37;16.03;;;;;;;39.49;42.53;100982.00;4997613;28;21086;-73
2022/03/04 09:47:51;;;;;;;36.93;16.50;;;;;;;39.40;42.52;100985.78;5007243;28;20805;-70
2022/03/04 09:50:19;;;;;;;27.97;14.50;;;;;;;39.55;42.00;100990.78;4997082;28;20491;-68
2022/03/04 09:52:49;;;;;;;26.13;15.83;;;;;;;39.47;42.32;100986.13;4997336;28;20931;-68
2022/03/04 09:55:15;;;;;;;37.10;16.33;;;;;;;39.40;42.68;100992.00;4995653;28;20423;-69
2022/03/04 09:57:42;;;;;;;26.00;17.13;;;;;;;39.59;42.52;100990.94;4990102;28;20440;-67
2022/03/04 10:00:11;;;;;;;40.63;16.53;;;;;;;39.52;42.72;100996.84;4996950;28;20431;-67
2022/03/04 10:02:37;;;;;;;46.93;16.87;;;;;;;39.60;42.50;100993.41;4997322;28;20419;-67
2022/03/04 10:05:04;;;;;;;34.80;16.50;;;;;;;39.53;42.53;101005.78;4997411;28;20451;-70
2022/03/04 10:07:39;;;;;;;26.03;14.50;;;;;;;39.46;42.74;101006.25;4996980;28;20442;-68
2022/03/04 10:10:10;;;;;;;26.30;14.30;;;;;;;39.50;42.48;101004.50;4981478;28;20486;-68
2022/03/04 10:12:50;;;;;;;27.60;16.03;;;;;;;39.63;42.20;100998.19;4980957;28;20407;-67
2022/03/04 10:15:17;;;;;;;35.60;16.30;;;;;;;39.48;42.93;100995.88;5015003;28;20408;-68
2022/03/04 10:17:56;;;;;;;43.80;15.70;;;;;;;39.51;42.95;100995.25;4996902;28;20408;-68
2022/03/04 10:20:41;;;;;;;35.00;18.63;;;;;;;39.36;42.94;100988.34;4997268;28;20408;-68
2022/03/04 10:23:33;;;;;;;21.67;12.33;;;;;;;39.48;42.44;100998.59;4997134;28;20415;-67
2022/03/04 10:26:01;;;;;;;41.10;18.17;;;;;;;39.41;42.25;100992.81;4978856;28;20471;-67
2022/03/04 10:28:29;;;;;;;22.00;15.33;;;;;;;39.47;42.26;100983.41;5014358;28;20400;-68
2022/03/04 10:30:56;;;;;;;33.77;15.73;;;;;;;39.35;42.36;100972.34;4996684;28;20421;-68
2022/03/04 10:33:28;;;;;;;32.20;15.50;;;;;;;39.42;42.53;100972.72;4995065;28;20863;-67
2022/03/04 10:36:12;;;;;;;30.37;15.20;;;;;;;39.66;41.99;100975.84;4988035;28;20515;-68
2022/03/04 10:38:39;;;;;;;32.03;15.10;;;;;;;39.44;42.37;100962.34;4996604;28;20420;-68
2022/03/04 10:41:22;;;;;;;24.67;14.63;;;;;;;39.72;41.63;100962.94;4996242;28;20479;-67
2022/03/04 10:43:48;;;;;;;23.93;13.77;;;;;;;39.76;41.72;100972.81;4996151;28;20419;-68
2022/03/04 10:46:14;;;;;;;35.50;15.53;;;;;;;39.70;41.98;100967.84;5013682;28;20452;-67
2022/03/04 10:48:51;;;;;;;29.37;18.67;;;;;;;39.31;42.56;100964.03;4996483;28;20420;-69
2022/03/04 10:51:36;;;;;;;31.67;15.23;;;;;;;39.29;42.80;100960.84;4996398;28;20492;-68
2022/03/04 10:54:17;;;;;;;33.70;17.37;;;;;;;39.42;42.51;100959.13;4980281;28;20447;-67
2022/03/04 10:56:50;;;;;;;39.97;17.37;;;;;;;39.18;42.80;100960.31;5009868;28;20427;-68
2022/03/04 10:59:16;;;;;;;26.33;15.17;;;;;;;39.35;42.43;100954.16;5012944;28;20435;-67
2022/03/04 11:01:50;;;;;;;31.30;16.73;;;;;;;39.46;42.64;100949.22;4996080;28;20928;-68
2022/03/04 11:04:19;;;;;;;28.00;15.40;;;;;;;39.61;42.28;100939.91;4996116;28;20421;-67
2022/03/04 11:06:46;;;;;;;37.83;18.07;;;;;;;39.38;42.99;100934.53;4996020;28;20832;-68
2022/03/04 11:09:14;;;;;;;35.60;14.67;;;;;;;39.49;42.60;100929.63;5013703;28;20813;-67
2022/03/04 11:11:43;;;;;;;39.03;15.50;;;;;;;39.64;42.61;100918.34;5013475;28;20409;-67